createdAt,value
2023-02-13T00:00:35.518Z,12.63
2023-02-13T00:03:02.926Z,12.18
2023-02-13T00:05:30.251Z,13.43
2023-02-13T00:07:57.809Z,11.82
2023-02-13T00:10:25.134Z,12.05
2023-02-13T00:12:52.342Z,9.77
2023-02-13T00:15:19.567Z,10.65
2023-02-13T00:17:46.831Z,12.30
2023-02-13T00:20:13.784Z,12.40
2023-02-13T00:22:41.029Z,10.82
2023-02-13T00:25:08.685Z,11.60
2023-02-13T00:27:36.086Z,11.43
2023-02-13T00:30:04.972Z,11.63
2023-02-13T00:32:32.259Z,10.80
2023-02-13T00:34:59.485Z,11.70
2023-02-13T00:37:26.782Z,11.60
2023-02-13T00:39:54.120Z,11.25
2023-02-13T00:42:24.103Z,10.68
2023-02-13T00:44:51.839Z,11.30
2023-02-13T00:47:19.242Z,11.98
2023-02-13T00:49:46.078Z,11.20
2023-02-13T00:52:14.606Z,11.40
2023-02-13T00:54:41.808Z,11.00
2023-02-13T00:57:09.104Z,11.27
2023-02-13T00:59:36.521Z,10.85
2023-02-13T01:02:03.853Z,11.50
2023-02-13T01:04:32.127Z,10.98
2023-02-13T01:06:59.381Z,11.25
2023-02-13T01:09:26.428Z,12.38
2023-02-13T01:11:53.792Z,11.07
2023-02-13T01:14:21.065Z,11.20
2023-02-13T01:16:49.811Z,12.10
2023-02-13T01:19:17.034Z,11.68
2023-02-13T01:21:44.660Z,11.35
2023-02-13T01:24:11.908Z,11.00
2023-02-13T01:26:39.282Z,12.17
2023-02-13T01:29:06.890Z,11.68
2023-02-13T01:31:34.195Z,10.63
2023-02-13T01:34:02.011Z,11.27
2023-02-13T01:36:28.889Z,11.30
2023-02-13T01:38:58.171Z,12.10
2023-02-13T01:41:26.815Z,11.23
2023-02-13T01:43:59.187Z,11.10
2023-02-13T01:46:31.620Z,12.13
2023-02-13T01:49:12.831Z,11.88
2023-02-13T01:51:40.929Z,12.47
2023-02-13T01:54:12.921Z,12.23
2023-02-13T01:56:54.060Z,11.30
2023-02-13T01:59:26.158Z,12.00
2023-02-13T02:01:53.823Z,11.63
2023-02-13T02:04:25.950Z,11.77
2023-02-13T02:06:58.798Z,11.52
2023-02-13T02:09:37.766Z,10.60
2023-02-13T02:12:16.430Z,12.23
2023-02-13T02:14:44.054Z,10.98
2023-02-13T02:17:11.973Z,11.47
2023-02-13T02:19:42.384Z,11.05
2023-02-13T02:22:44.185Z,10.88
2023-02-13T02:25:24.639Z,10.88
2023-02-13T02:28:13.605Z,11.98
2023-02-13T02:31:18.328Z,11.00
2023-02-13T02:34:03.727Z,11.68
2023-02-13T02:36:35.288Z,11.18
2023-02-13T02:39:17.970Z,12.30
2023-02-13T02:42:03.247Z,10.70
2023-02-13T02:44:50.546Z,11.13
2023-02-13T02:47:44.015Z,11.90
2023-02-13T02:50:29.497Z,12.75
2023-02-13T02:53:05.323Z,11.73
2023-02-13T02:56:08.906Z,12.10
2023-02-13T02:59:10.339Z,9.77
2023-02-13T03:01:57.843Z,11.88
2023-02-13T03:05:04.562Z,11.23
2023-02-13T03:07:31.772Z,13.00
2023-02-13T03:10:22.726Z,11.32
2023-02-13T03:13:22.124Z,11.47
2023-02-13T03:16:10.666Z,11.35
2023-02-13T03:19:13.672Z,8.70
2023-02-13T03:22:20.628Z,11.13
2023-02-13T03:25:05.967Z,11.93
2023-02-13T03:28:14.022Z,11.90
2023-02-13T03:31:17.569Z,11.98
2023-02-13T03:33:59.567Z,12.40
2023-02-13T03:37:27.934Z,12.20
2023-02-13T03:40:16.031Z,11.88
2023-02-13T03:42:48.725Z,12.50
2023-02-13T03:45:39.538Z,10.98
2023-02-13T03:48:32.162Z,12.27
2023-02-13T03:51:02.105Z,11.30
2023-02-13T03:53:32.957Z,12.07
2023-02-13T03:56:20.567Z,11.13
2023-02-13T03:59:11.237Z,12.05
2023-02-13T04:01:39.529Z,11.10
2023-02-13T04:04:06.868Z,12.82
2023-02-13T04:06:42.646Z,12.57
2023-02-13T04:09:10.150Z,11.23
2023-02-13T04:11:41.349Z,12.15
2023-02-13T04:14:38.878Z,11.23
2023-02-13T04:17:21.711Z,11.68
2023-02-13T04:19:48.673Z,11.55
2023-02-13T04:22:15.706Z,11.40
2023-02-13T04:24:43.143Z,11.07
2023-02-13T04:27:15.073Z,13.07
2023-02-13T04:29:42.386Z,10.48
2023-02-13T04:32:11.293Z,11.68
2023-02-13T04:34:38.849Z,12.90
2023-02-13T04:37:06.078Z,13.13
2023-02-13T04:39:33.348Z,11.23
2023-02-13T04:42:00.632Z,10.52
2023-02-13T04:44:28.057Z,10.40
2023-02-13T04:46:55.229Z,9.77
2023-02-13T04:49:22.556Z,11.90
2023-02-13T04:51:49.284Z,13.25
2023-02-13T04:54:16.674Z,12.57
2023-02-13T04:56:44.179Z,11.77
2023-02-13T04:59:11.409Z,12.33
2023-02-13T05:01:38.835Z,11.77
2023-02-13T05:04:05.801Z,12.82
2023-02-13T05:06:33.077Z,12.27
2023-02-13T05:09:00.413Z,12.43
2023-02-13T05:11:27.591Z,12.17
2023-02-13T05:13:54.722Z,13.48
2023-02-13T05:16:21.530Z,13.85
2023-02-13T05:18:49.106Z,12.60
2023-02-13T05:21:35.309Z,14.27
2023-02-13T05:24:02.106Z,10.43
2023-02-13T05:26:29.314Z,12.25
2023-02-13T05:29:15.522Z,13.15
2023-02-13T05:31:42.897Z,13.77
2023-02-13T05:34:10.538Z,13.70
2023-02-13T05:36:37.830Z,13.03
2023-02-13T05:39:05.239Z,12.82
2023-02-13T05:41:32.511Z,11.63
2023-02-13T05:43:59.897Z,12.07
2023-02-13T05:46:27.464Z,12.85
2023-02-13T05:48:54.710Z,14.03
2023-02-13T05:51:21.971Z,11.70
2023-02-13T05:53:49.153Z,14.20
2023-02-13T05:56:16.902Z,13.93
2023-02-13T05:58:45.719Z,12.00
2023-02-13T06:01:12.849Z,14.03
2023-02-13T06:03:40.459Z,13.60
2023-02-13T06:06:07.818Z,13.50
2023-02-13T06:08:35.062Z,11.73
2023-02-13T06:11:02.648Z,12.73
2023-02-13T06:13:30.106Z,14.23
2023-02-13T06:15:57.458Z,14.32
2023-02-13T06:18:24.702Z,14.38
2023-02-13T06:20:51.901Z,13.55
2023-02-13T06:23:19.271Z,13.05
2023-02-13T06:25:46.571Z,15.57
2023-02-13T06:28:13.849Z,17.80
2023-02-13T06:30:41.223Z,16.85
2023-02-13T06:33:08.104Z,13.80
2023-02-13T06:35:35.401Z,13.70
2023-02-13T06:38:02.522Z,13.23
2023-02-13T06:40:29.910Z,12.45
2023-02-13T06:42:57.119Z,12.70
2023-02-13T06:45:24.379Z,21.15
2023-02-13T06:47:52.057Z,25.42
2023-02-13T06:50:19.607Z,16.47
2023-02-13T06:52:50.602Z,13.27
2023-02-13T06:55:18.270Z,14.45
2023-02-13T06:57:45.672Z,14.63
2023-02-13T07:00:14.184Z,15.35
2023-02-13T07:02:43.061Z,14.40
2023-02-13T07:05:11.578Z,14.32
2023-02-13T07:07:40.750Z,15.27
2023-02-13T07:10:09.992Z,14.45
2023-02-13T07:12:37.891Z,15.15
2023-02-13T07:15:05.893Z,20.33
2023-02-13T07:17:36.032Z,17.40
2023-02-13T07:20:04.589Z,16.17
2023-02-13T07:22:32.907Z,14.77
2023-02-13T07:25:00.571Z,14.82
2023-02-13T07:27:29.329Z,15.27
2023-02-13T07:29:57.639Z,21.15
2023-02-13T07:32:25.582Z,17.25
2023-02-13T07:35:01.705Z,12.98
2023-02-13T07:37:30.902Z,14.63
2023-02-13T07:39:58.227Z,14.30
2023-02-13T07:42:25.539Z,15.48
2023-02-13T07:44:52.753Z,15.52
2023-02-13T07:47:20.398Z,15.18
2023-02-13T07:49:47.785Z,15.13
2023-02-13T07:52:15.019Z,15.90
2023-02-13T07:54:47.652Z,16.52
2023-02-13T07:57:15.565Z,18.17
2023-02-13T07:59:42.782Z,16.52
2023-02-13T08:02:14.415Z,15.32
2023-02-13T08:04:46.248Z,15.17
2023-02-13T08:07:14.335Z,16.60
2023-02-13T08:10:00.370Z,15.60
2023-02-13T08:12:27.897Z,16.33
2023-02-13T08:14:55.114Z,15.10
2023-02-13T08:17:21.946Z,16.10
2023-02-13T08:19:48.919Z,15.50
2023-02-13T08:22:16.157Z,15.32
2023-02-13T08:24:43.112Z,14.70
2023-02-13T08:27:14.643Z,15.65
2023-02-13T08:29:42.127Z,16.43
2023-02-13T08:32:09.435Z,15.65
2023-02-13T08:34:36.893Z,15.35
2023-02-13T08:37:04.434Z,15.60
2023-02-13T08:39:31.347Z,15.35
2023-02-13T08:41:58.674Z,14.00
2023-02-13T08:44:26.011Z,14.60
2023-02-13T08:46:52.844Z,13.77
2023-02-13T08:49:20.114Z,13.70
2023-02-13T08:51:47.300Z,14.05
2023-02-13T08:54:14.872Z,14.33
2023-02-13T08:56:43.105Z,14.43
2023-02-13T08:59:09.917Z,14.18
2023-02-13T09:01:36.836Z,14.85
2023-02-13T09:04:04.136Z,13.18
2023-02-13T09:06:31.714Z,11.90
2023-02-13T09:08:58.560Z,13.70
2023-02-13T09:11:25.415Z,9.38
2023-02-13T09:13:55.498Z,13.55
2023-02-13T09:16:22.974Z,15.10
2023-02-13T09:18:51.445Z,12.17
2023-02-13T09:21:20.869Z,14.07
2023-02-13T09:23:48.113Z,12.82
2023-02-13T09:26:16.216Z,13.30
2023-02-13T09:28:44.115Z,16.50
2023-02-13T09:31:19.394Z,14.97
2023-02-13T09:33:48.676Z,13.93
2023-02-13T09:36:21.829Z,13.43
2023-02-13T09:38:52.714Z,14.25
2023-02-13T09:41:34.220Z,12.52
2023-02-13T09:44:38.957Z,13.07
2023-02-13T09:47:29.738Z,13.75
2023-02-13T09:50:02.512Z,12.80
2023-02-13T09:52:34.707Z,13.30
2023-02-13T09:55:03.029Z,13.65
2023-02-13T09:57:44.315Z,13.23
2023-02-13T10:00:45.443Z,15.85
2023-02-13T10:03:29.499Z,13.52
2023-02-13T10:06:05.596Z,13.43
2023-02-13T10:08:35.685Z,12.50
2023-02-13T10:11:35.154Z,12.73
2023-02-13T10:14:02.913Z,13.05
2023-02-13T10:16:43.513Z,13.60
2023-02-13T10:19:31.548Z,12.40
2023-02-13T10:22:02.443Z,10.40
2023-02-13T10:24:41.666Z,12.50
2023-02-13T10:27:35.965Z,12.38
2023-02-13T10:30:32.218Z,13.23
2023-02-13T10:33:21.179Z,11.68
2023-02-13T10:35:54.776Z,10.80
2023-02-13T10:38:23.651Z,11.97
2023-02-13T10:41:06.105Z,12.68
2023-02-13T10:43:48.413Z,12.27
2023-02-13T10:46:29.874Z,13.27
2023-02-13T10:49:24.723Z,13.35
2023-02-13T10:52:11.665Z,12.03
2023-02-13T10:54:59.081Z,12.50
2023-02-13T10:57:54.120Z,10.82
2023-02-13T11:00:33.953Z,10.65
2023-02-13T11:03:01.633Z,13.07
2023-02-13T11:05:39.498Z,12.00
2023-02-13T11:08:20.630Z,12.93
2023-02-13T11:10:47.928Z,12.93
2023-02-13T11:13:22.318Z,13.13
2023-02-13T11:16:07.359Z,12.02
2023-02-13T11:18:41.033Z,11.67
2023-02-13T11:21:20.271Z,11.60
2023-02-13T11:23:52.774Z,12.35
2023-02-13T11:26:27.325Z,11.95
2023-02-13T11:28:57.510Z,11.93
2023-02-13T11:31:24.709Z,11.07
2023-02-13T11:33:52.090Z,12.57
2023-02-13T11:36:35.577Z,12.75
2023-02-13T11:39:17.822Z,9.45
2023-02-13T11:41:46.773Z,11.90
2023-02-13T11:44:33.234Z,12.48
2023-02-13T11:47:03.159Z,11.38
2023-02-13T11:49:39.364Z,12.60
2023-02-13T11:52:11.166Z,11.80
2023-02-13T11:54:43.727Z,12.32
2023-02-13T11:57:35.071Z,11.85
2023-02-13T12:00:28.825Z,11.52
2023-02-13T12:02:55.903Z,11.45
2023-02-13T12:05:26.373Z,12.02
2023-02-13T12:07:58.872Z,12.30
2023-02-13T12:10:29.109Z,12.63
2023-02-13T12:12:57.943Z,12.35
2023-02-13T12:15:33.966Z,11.93
2023-02-13T12:18:19.487Z,11.32
2023-02-13T12:21:01.144Z,12.07
2023-02-13T12:23:55.597Z,12.35
2023-02-13T12:26:37.844Z,10.23
2023-02-13T12:29:05.230Z,11.27
2023-02-13T12:31:54.953Z,11.45
2023-02-13T12:34:55.636Z,12.55
2023-02-13T12:37:49.443Z,12.15
2023-02-13T12:40:19.101Z,12.97
2023-02-13T12:43:15.642Z,13.10
2023-02-13T12:46:05.802Z,13.05
2023-02-13T12:49:13.831Z,12.60
2023-02-13T12:52:15.558Z,11.30
2023-02-13T12:55:28.918Z,12.17
2023-02-13T12:58:16.505Z,12.05
2023-02-13T13:01:02.318Z,11.48
2023-02-13T13:03:43.158Z,11.88
2023-02-13T13:06:23.793Z,12.48
2023-02-13T13:09:12.226Z,11.70
2023-02-13T13:12:10.961Z,12.20
2023-02-13T13:15:02.106Z,11.80
2023-02-13T13:17:31.705Z,12.65
2023-02-13T13:20:14.499Z,12.23
2023-02-13T13:22:53.994Z,12.13
2023-02-13T13:25:35.509Z,12.23
2023-02-13T13:28:11.047Z,11.90
2023-02-13T13:30:39.181Z,11.13
2023-02-13T13:33:18.293Z,11.88
2023-02-13T13:36:20.053Z,11.37
2023-02-13T13:39:06.138Z,11.88
2023-02-13T13:41:46.997Z,11.23
2023-02-13T13:44:28.871Z,10.73
2023-02-13T13:47:04.307Z,11.05
2023-02-13T13:49:54.782Z,10.73
2023-02-13T13:52:31.510Z,10.25
2023-02-13T13:55:00.535Z,10.35
2023-02-13T13:58:00.501Z,10.90
2023-02-13T14:00:29.872Z,13.45
2023-02-13T14:02:59.730Z,10.43
2023-02-13T14:05:28.485Z,11.30
2023-02-13T14:07:58.975Z,11.20
2023-02-13T14:10:25.842Z,10.35
2023-02-13T14:12:58.738Z,10.85
2023-02-13T14:15:34.917Z,11.93
2023-02-13T14:18:19.007Z,12.93
2023-02-13T14:20:51.802Z,11.82
2023-02-13T14:23:33.580Z,10.60
2023-02-13T14:26:18.116Z,11.43
2023-02-13T14:28:50.662Z,12.03
2023-02-13T14:31:31.328Z,12.02
2023-02-13T14:34:02.592Z,12.63
2023-02-13T14:36:33.785Z,11.88
2023-02-13T14:39:04.747Z,12.95
2023-02-13T14:41:56.596Z,12.17
2023-02-13T14:44:33.795Z,12.68
2023-02-13T14:47:04.108Z,12.50
2023-02-13T14:49:35.757Z,12.85
2023-02-13T14:52:06.925Z,12.95
2023-02-13T14:55:04.382Z,12.30
2023-02-13T14:57:38.128Z,12.40
2023-02-13T15:00:26.058Z,13.07
2023-02-13T15:03:04.454Z,12.10
2023-02-13T15:05:35.815Z,12.65
2023-02-13T15:08:11.265Z,12.50
2023-02-13T15:10:47.746Z,12.60
2023-02-13T15:13:29.203Z,12.00
2023-02-13T15:16:11.860Z,12.43
2023-02-13T15:18:49.615Z,11.88
2023-02-13T15:21:20.951Z,12.23
2023-02-13T15:23:56.798Z,11.73
2023-02-13T15:26:27.891Z,11.80
2023-02-13T15:29:05.859Z,13.27
2023-02-13T15:31:35.462Z,12.23
2023-02-13T15:34:02.400Z,11.27
2023-02-13T15:36:39.777Z,12.95
2023-02-13T15:39:10.969Z,12.00
2023-02-13T15:41:41.667Z,11.90
2023-02-13T15:44:15.882Z,13.55
2023-02-13T15:46:45.342Z,11.95
2023-02-13T15:49:18.587Z,13.23
2023-02-13T15:51:46.417Z,11.80
2023-02-13T15:54:28.248Z,11.77
2023-02-13T15:56:59.280Z,11.48
2023-02-13T15:59:31.534Z,11.60
2023-02-13T16:02:00.234Z,12.18
2023-02-13T16:04:28.733Z,11.73
2023-02-13T16:06:56.821Z,11.55
2023-02-13T16:09:30.779Z,11.60
2023-02-13T16:12:05.556Z,11.52
2023-02-13T16:14:35.718Z,12.73
2023-02-13T16:17:06.725Z,11.50
2023-02-13T16:19:52.326Z,11.93
2023-02-13T16:22:28.402Z,12.20
2023-02-13T16:25:05.213Z,11.98
2023-02-13T16:27:34.039Z,12.52
2023-02-13T16:30:05.664Z,11.85
2023-02-13T16:32:41.204Z,12.10
2023-02-13T16:35:28.966Z,13.03
2023-02-13T16:38:02.460Z,19.10
2023-02-13T16:40:41.041Z,27.35
2023-02-13T16:43:40.979Z,22.42
2023-02-13T16:46:20.038Z,14.27
2023-02-13T16:48:59.422Z,16.97
2023-02-13T16:51:48.006Z,13.07
2023-02-13T16:54:50.602Z,13.30
2023-02-13T16:57:18.134Z,12.88
2023-02-13T16:59:48.098Z,13.50
2023-02-13T17:02:22.581Z,11.83
2023-02-13T17:05:01.595Z,12.23
2023-02-13T17:07:31.087Z,12.93
2023-02-13T17:10:21.221Z,13.45
2023-02-13T17:12:50.813Z,12.40
2023-02-13T17:15:20.733Z,13.50
2023-02-13T17:17:48.878Z,12.70
2023-02-13T17:20:18.294Z,11.65
2023-02-13T17:22:48.083Z,12.15
2023-02-13T17:25:21.887Z,12.15
2023-02-13T17:27:50.319Z,12.00
2023-02-13T17:30:22.551Z,12.23
2023-02-13T17:32:53.764Z,11.50
2023-02-13T17:35:21.034Z,10.88
2023-02-13T17:37:48.236Z,11.23
2023-02-13T17:40:18.024Z,16.07
2023-02-13T17:42:47.099Z,12.48
2023-02-13T17:45:16.479Z,15.25
2023-02-13T17:47:43.918Z,13.20
2023-02-13T17:50:12.955Z,11.60
2023-02-13T17:52:40.908Z,11.83
2023-02-13T17:55:17.412Z,12.13
2023-02-13T17:57:45.922Z,13.90
2023-02-13T18:00:13.370Z,15.40
2023-02-13T18:02:42.515Z,15.38
2023-02-13T18:05:10.447Z,17.20
2023-02-13T18:07:39.476Z,18.42
2023-02-13T18:10:13.053Z,20.50
2023-02-13T18:12:40.571Z,19.05
2023-02-13T18:15:08.180Z,19.92
2023-02-13T18:17:35.434Z,16.03
2023-02-13T18:20:03.063Z,14.75
2023-02-13T18:22:30.406Z,15.73
2023-02-13T18:24:57.729Z,17.67
2023-02-13T18:27:26.869Z,17.13
2023-02-13T18:29:55.215Z,16.33
2023-02-13T18:32:22.903Z,14.68
2023-02-13T18:34:50.280Z,15.20
2023-02-13T18:37:18.294Z,15.80
2023-02-13T18:39:45.585Z,14.15
2023-02-13T18:42:13.350Z,14.40
2023-02-13T18:44:40.941Z,14.90
2023-02-13T18:47:08.342Z,26.05
2023-02-13T18:49:35.684Z,50.80
2023-02-13T18:52:03.074Z,20.67
2023-02-13T18:54:30.477Z,14.47
2023-02-13T18:56:57.961Z,12.85
2023-02-13T18:59:25.557Z,13.73
2023-02-13T19:01:52.812Z,12.85
2023-02-13T19:04:20.030Z,12.23
2023-02-13T19:06:47.236Z,11.97
2023-02-13T19:09:14.036Z,13.23
2023-02-13T19:11:42.689Z,13.23
2023-02-13T19:14:13.089Z,16.58
2023-02-13T19:16:40.427Z,20.92
2023-02-13T19:19:08.333Z,20.27
2023-02-13T19:21:37.705Z,17.08
2023-02-13T19:24:07.959Z,14.00
2023-02-13T19:26:35.618Z,14.48
2023-02-13T19:29:03.020Z,13.27
2023-02-13T19:31:31.873Z,12.93
2023-02-13T19:34:00.517Z,12.35
2023-02-13T19:36:30.080Z,12.80
2023-02-13T19:38:59.752Z,12.55
2023-02-13T19:41:27.436Z,13.93
2023-02-13T19:43:54.732Z,14.20
2023-02-13T19:46:27.185Z,13.43
2023-02-13T19:48:54.352Z,14.15
2023-02-13T19:51:27.780Z,13.60
2023-02-13T19:54:06.330Z,14.70
2023-02-13T19:56:35.767Z,15.33
2023-02-13T19:59:03.625Z,16.73
2023-02-13T20:01:31.404Z,17.45
2023-02-13T20:03:58.717Z,18.45
2023-02-13T20:06:31.652Z,18.08
2023-02-13T20:09:01.593Z,18.63
2023-02-13T20:11:29.155Z,18.20
2023-02-13T20:13:57.993Z,18.95
2023-02-13T20:16:25.090Z,18.50
2023-02-13T20:18:52.400Z,18.00
2023-02-13T20:21:20.856Z,18.47
2023-02-13T20:23:50.568Z,17.63
2023-02-13T20:26:18.132Z,18.00
2023-02-13T20:28:46.126Z,18.33
2023-02-13T20:31:17.665Z,16.45
2023-02-13T20:33:45.390Z,18.67
2023-02-13T20:36:14.358Z,18.70
2023-02-13T20:38:42.248Z,22.10
2023-02-13T20:41:18.032Z,24.15
2023-02-13T20:43:45.905Z,27.75
2023-02-13T20:46:15.674Z,26.57
2023-02-13T20:48:44.247Z,23.58
2023-02-13T20:51:14.851Z,21.70
2023-02-13T20:53:43.130Z,20.63
2023-02-13T20:56:21.484Z,20.20
2023-02-13T20:58:50.050Z,19.67
2023-02-13T21:01:40.525Z,17.58
2023-02-13T21:04:11.245Z,17.95
2023-02-13T21:06:39.703Z,18.67
2023-02-13T21:09:08.745Z,17.25
2023-02-13T21:11:36.911Z,17.27
2023-02-13T21:14:04.442Z,19.02
2023-02-13T21:16:34.782Z,17.60
2023-02-13T21:19:05.384Z,13.23
2023-02-13T21:21:34.124Z,12.82
2023-02-13T21:24:08.299Z,12.13
2023-02-13T21:26:35.959Z,12.20
2023-02-13T21:29:03.662Z,13.05
2023-02-13T21:31:37.145Z,12.30
2023-02-13T21:34:10.083Z,12.07
2023-02-13T21:36:37.703Z,12.40
2023-02-13T21:39:06.659Z,11.10
2023-02-13T21:41:34.227Z,10.63
2023-02-13T21:44:01.433Z,12.20
2023-02-13T21:46:30.594Z,13.10
2023-02-13T21:49:00.539Z,13.00
2023-02-13T21:51:28.846Z,14.05
2023-02-13T21:53:56.309Z,14.50
2023-02-13T21:56:28.314Z,14.85
2023-02-13T21:58:56.276Z,13.98
2023-02-13T22:01:30.505Z,12.60
2023-02-13T22:04:00.989Z,11.13
2023-02-13T22:06:30.654Z,11.45
2023-02-13T22:08:59.177Z,12.90
2023-02-13T22:11:26.813Z,11.35
2023-02-13T22:14:01.600Z,14.57
2023-02-13T22:16:33.314Z,13.02
2023-02-13T22:19:01.286Z,12.55
2023-02-13T22:21:30.152Z,12.77
2023-02-13T22:23:58.113Z,12.13
2023-02-13T22:26:37.207Z,12.57
2023-02-13T22:29:10.063Z,12.38
2023-02-13T22:31:37.602Z,13.15
2023-02-13T22:34:05.915Z,12.82
2023-02-13T22:36:38.785Z,12.18
2023-02-13T22:39:06.446Z,13.03
2023-02-13T22:41:33.705Z,12.43
2023-02-13T22:44:00.981Z,12.25
2023-02-13T22:46:31.932Z,13.02
2023-02-13T22:48:59.678Z,12.30
2023-02-13T22:51:32.651Z,13.50
2023-02-13T22:54:00.867Z,12.82
2023-02-13T22:56:29.444Z,13.52
2023-02-13T22:58:56.913Z,13.05
2023-02-13T23:01:25.650Z,13.80
2023-02-13T23:03:53.108Z,13.73
2023-02-13T23:06:20.414Z,13.10
2023-02-13T23:08:52.717Z,15.00
2023-02-13T23:11:40.922Z,14.25
2023-02-13T23:14:08.162Z,12.57
2023-02-13T23:16:54.092Z,12.57
2023-02-13T23:19:21.876Z,14.02
2023-02-13T23:21:49.454Z,13.30
2023-02-13T23:24:16.809Z,13.23
2023-02-13T23:26:44.095Z,13.32
2023-02-13T23:29:11.315Z,11.23
2023-02-13T23:31:38.822Z,12.90
2023-02-13T23:34:06.239Z,14.13
2023-02-13T23:36:33.459Z,12.82
2023-02-13T23:39:00.823Z,12.95
2023-02-13T23:41:28.083Z,14.33
2023-02-13T23:43:55.358Z,12.55
2023-02-13T23:46:22.656Z,13.05
2023-02-13T23:48:49.955Z,14.43
2023-02-13T23:51:18.711Z,12.55
2023-02-13T23:53:46.097Z,12.77
2023-02-13T23:56:13.338Z,13.23
2023-02-13T23:58:40.681Z,12.20
